createdAt,value
2022-09-14T00:01:27.154Z,4.63
2022-09-14T00:03:56.570Z,6.40
2022-09-14T00:06:25.035Z,5.13
2022-09-14T00:08:54.154Z,7.83
2022-09-14T00:11:24.865Z,6.60
2022-09-14T00:13:53.814Z,7.53
2022-09-14T00:16:23.011Z,4.37
2022-09-14T00:18:54.625Z,5.07
2022-09-14T00:21:23.436Z,7.33
2022-09-14T00:23:51.759Z,4.87
2022-09-14T00:26:21.097Z,8.00
2022-09-14T00:28:51.942Z,6.70
2022-09-14T00:31:21.132Z,5.43
2022-09-14T00:33:50.445Z,4.37
2022-09-14T00:36:20.227Z,5.57
2022-09-14T00:38:48.933Z,7.27
2022-09-14T00:41:18.447Z,6.47
2022-09-14T00:43:58.851Z,5.10
2022-09-14T00:46:28.402Z,3.73
2022-09-14T00:48:58.117Z,6.23
2022-09-14T00:51:26.736Z,5.87
2022-09-14T00:53:55.355Z,4.97
2022-09-14T00:56:23.788Z,6.97
2022-09-14T00:58:53.681Z,6.60
2022-09-14T01:01:23.503Z,5.87
2022-09-14T01:03:51.929Z,8.13
2022-09-14T01:06:23.854Z,6.20
2022-09-14T01:08:58.453Z,5.73
2022-09-14T01:11:35.023Z,4.43
2022-09-14T01:14:09.180Z,5.23
2022-09-14T01:16:43.001Z,5.83
2022-09-14T01:19:16.717Z,5.23
2022-09-14T01:21:46.714Z,5.30
2022-09-14T01:24:20.380Z,4.70
2022-09-14T01:26:59.896Z,8.57
2022-09-14T01:29:32.930Z,4.30
2022-09-14T01:32:04.349Z,6.80
2022-09-14T01:34:34.756Z,6.00
2022-09-14T01:37:06.109Z,4.60
2022-09-14T01:39:36.836Z,9.10
2022-09-14T01:42:06.003Z,5.87
2022-09-14T01:44:38.041Z,5.27
2022-09-14T01:47:08.486Z,7.30
2022-09-14T01:49:39.914Z,7.47
2022-09-14T01:52:12.509Z,7.17
2022-09-14T01:54:42.930Z,10.07
2022-09-14T01:57:13.731Z,8.00
2022-09-14T01:59:44.973Z,5.10
2022-09-14T02:02:14.638Z,6.73
2022-09-14T02:04:45.482Z,7.17
2022-09-14T02:07:13.930Z,7.23
2022-09-14T02:09:42.463Z,6.07
2022-09-14T02:12:11.020Z,7.43
2022-09-14T02:14:39.463Z,8.40
2022-09-14T02:17:09.285Z,6.60
2022-09-14T02:19:39.420Z,7.17
2022-09-14T02:22:07.784Z,6.27
2022-09-14T02:24:36.182Z,6.00
2022-09-14T02:27:04.943Z,6.10
2022-09-14T02:29:33.304Z,7.70
2022-09-14T02:32:06.595Z,5.87
2022-09-14T02:34:49.672Z,6.73
2022-09-14T02:37:20.191Z,5.87
2022-09-14T02:39:49.934Z,5.70
2022-09-14T02:42:23.164Z,5.60
2022-09-14T02:44:56.534Z,6.30
2022-09-14T02:47:28.751Z,5.63
2022-09-14T02:50:03.790Z,4.93
2022-09-14T02:52:34.845Z,5.43
2022-09-14T02:55:06.880Z,4.43
2022-09-14T02:57:35.398Z,9.93
2022-09-14T03:00:04.035Z,7.37
2022-09-14T03:02:32.445Z,6.60
2022-09-14T03:05:02.174Z,6.87
2022-09-14T03:07:30.532Z,6.17
2022-09-14T03:09:58.905Z,7.23
2022-09-14T03:12:27.237Z,8.40
2022-09-14T03:14:55.625Z,8.37
2022-09-14T03:17:23.955Z,5.47
2022-09-14T03:19:52.367Z,4.70
2022-09-14T03:22:22.071Z,6.47
2022-09-14T03:24:50.717Z,8.30
2022-09-14T03:27:19.041Z,8.43
2022-09-14T03:29:48.336Z,7.97
2022-09-14T03:32:16.681Z,5.77
2022-09-14T03:34:45.047Z,5.83
2022-09-14T03:37:13.644Z,6.27
2022-09-14T03:39:43.434Z,5.17
2022-09-14T03:42:12.122Z,6.13
2022-09-14T03:44:40.487Z,6.57
2022-09-14T03:47:08.988Z,4.50
2022-09-14T03:49:37.507Z,5.80
2022-09-14T03:52:05.971Z,5.50
2022-09-14T03:54:34.330Z,3.73
2022-09-14T03:57:04.053Z,4.90
2022-09-14T03:59:32.431Z,3.90
2022-09-14T04:02:01.037Z,6.17
2022-09-14T04:04:29.775Z,5.97
2022-09-14T04:06:58.195Z,4.03
2022-09-14T04:09:26.583Z,6.20
2022-09-14T04:11:54.927Z,7.23
2022-09-14T04:14:25.155Z,5.63
2022-09-14T04:16:53.534Z,6.33
2022-09-14T04:19:21.942Z,6.73
2022-09-14T04:21:50.263Z,5.07
2022-09-14T04:24:18.990Z,5.67
2022-09-14T04:26:47.908Z,6.93
2022-09-14T04:29:16.296Z,6.03
2022-09-14T04:31:46.024Z,6.03
2022-09-14T04:34:14.827Z,4.27
2022-09-14T04:36:43.525Z,3.87
2022-09-14T04:39:13.813Z,5.23
2022-09-14T04:41:42.397Z,3.97
2022-09-14T04:44:10.759Z,6.50
2022-09-14T04:46:43.543Z,8.83
2022-09-14T04:49:15.783Z,6.27
2022-09-14T04:51:44.181Z,5.63
2022-09-14T04:54:16.698Z,9.23
2022-09-14T04:56:45.789Z,6.50
2022-09-14T04:59:15.602Z,6.80
2022-09-14T05:01:45.318Z,4.20
2022-09-14T05:04:14.140Z,6.27
2022-09-14T05:06:45.814Z,10.03
2022-09-14T05:09:15.364Z,8.13
2022-09-14T05:11:44.125Z,7.57
2022-09-14T05:14:13.689Z,7.10
2022-09-14T05:16:44.032Z,5.50
2022-09-14T05:19:14.538Z,4.77
2022-09-14T05:21:44.680Z,7.13
2022-09-14T05:24:14.931Z,5.37
2022-09-14T05:26:43.858Z,6.93
2022-09-14T05:29:13.985Z,8.13
2022-09-14T05:31:42.559Z,9.87
2022-09-14T05:34:11.309Z,7.17
2022-09-14T05:36:39.927Z,7.07
2022-09-14T05:39:10.157Z,4.90
2022-09-14T05:41:38.904Z,6.43
2022-09-14T05:44:07.583Z,5.27
2022-09-14T05:46:36.432Z,10.03
2022-09-14T05:49:04.916Z,9.93
2022-09-14T05:51:33.306Z,7.30
2022-09-14T05:54:01.963Z,4.63
2022-09-14T05:56:32.702Z,5.70
2022-09-14T05:59:01.085Z,10.17
2022-09-14T06:01:31.084Z,3.73
2022-09-14T06:04:02.169Z,7.77
2022-09-14T06:06:31.157Z,5.37
2022-09-14T06:08:59.542Z,6.30
2022-09-14T06:11:28.574Z,7.20
2022-09-14T06:13:58.849Z,8.53
2022-09-14T06:16:28.563Z,7.90
2022-09-14T06:18:57.763Z,5.03
2022-09-14T06:21:29.023Z,7.47
2022-09-14T06:23:57.405Z,6.90
2022-09-14T06:26:25.861Z,9.60
2022-09-14T06:28:54.258Z,8.40
2022-09-14T06:31:25.405Z,6.13
2022-09-14T06:33:54.199Z,7.40
2022-09-14T06:36:23.008Z,7.07
2022-09-14T06:38:51.665Z,7.50
2022-09-14T06:41:21.746Z,7.63
2022-09-14T06:43:50.837Z,8.27
2022-09-14T06:46:20.133Z,6.27
2022-09-14T06:48:50.526Z,8.60
2022-09-14T06:51:20.693Z,6.03
2022-09-14T06:53:49.546Z,7.73
2022-09-14T06:56:18.674Z,9.77
2022-09-14T06:58:47.342Z,10.50
2022-09-14T07:01:17.370Z,6.57
2022-09-14T07:03:47.067Z,9.13
2022-09-14T07:06:17.797Z,10.03
2022-09-14T07:08:46.312Z,9.93
2022-09-14T07:11:15.567Z,7.87
2022-09-14T07:13:43.947Z,9.37
2022-09-14T07:16:12.489Z,6.23
2022-09-14T07:18:41.327Z,6.23
2022-09-14T07:21:10.662Z,5.63
2022-09-14T07:23:41.178Z,8.30
2022-09-14T07:26:11.099Z,5.53
2022-09-14T07:28:39.646Z,9.47
2022-09-14T07:31:15.573Z,7.37
2022-09-14T07:33:44.254Z,5.73
2022-09-14T07:36:13.597Z,9.27
2022-09-14T07:38:58.669Z,6.20
2022-09-14T07:41:32.269Z,4.57
2022-09-14T07:44:01.608Z,8.70
2022-09-14T07:46:30.687Z,5.30
2022-09-14T07:48:59.827Z,10.47
2022-09-14T07:51:29.008Z,8.57
2022-09-14T07:53:58.997Z,9.10
2022-09-14T07:56:27.415Z,7.30
2022-09-14T07:59:07.141Z,8.30
2022-09-14T08:01:45.524Z,8.83
2022-09-14T08:04:14.027Z,9.40
2022-09-14T08:06:42.407Z,7.07
2022-09-14T08:09:12.146Z,6.90
2022-09-14T08:11:40.810Z,7.97
2022-09-14T08:14:11.550Z,6.40
2022-09-14T08:16:40.854Z,6.33
2022-09-14T08:19:10.906Z,6.67
2022-09-14T08:21:44.104Z,7.73
2022-09-14T08:24:16.878Z,4.40
2022-09-14T08:26:45.399Z,6.20
2022-09-14T08:29:13.863Z,8.00
2022-09-14T08:31:43.307Z,6.97
2022-09-14T08:34:11.912Z,9.63
2022-09-14T08:36:41.343Z,7.15
2022-09-14T08:39:10.826Z,3.92
2022-09-14T08:41:42.885Z,4.57
2022-09-14T08:44:16.877Z,6.18
2022-09-14T08:46:47.286Z,8.35
2022-09-14T08:49:17.657Z,7.15
2022-09-14T08:51:46.305Z,4.60
2022-09-14T08:54:14.797Z,6.00
2022-09-14T08:56:46.112Z,7.60
2022-09-14T08:59:21.792Z,7.80
2022-09-14T09:01:53.647Z,5.22
2022-09-14T09:04:26.838Z,4.45
2022-09-14T09:06:58.144Z,7.85
2022-09-14T09:09:31.279Z,6.97
2022-09-14T09:12:01.436Z,5.10
2022-09-14T09:14:33.056Z,7.50
2022-09-14T09:17:03.053Z,5.90
2022-09-14T09:19:34.856Z,6.70
2022-09-14T09:22:05.952Z,6.85
2022-09-14T09:24:37.411Z,7.82
2022-09-14T09:27:10.800Z,5.70
2022-09-14T09:29:39.196Z,5.03
2022-09-14T09:32:09.686Z,4.85
2022-09-14T09:34:38.097Z,5.22
2022-09-14T09:37:06.430Z,4.72
2022-09-14T09:39:35.686Z,5.95
2022-09-14T09:42:08.488Z,5.32
2022-09-14T09:44:59.293Z,6.03
2022-09-14T09:47:31.789Z,5.38
2022-09-14T09:50:01.306Z,5.03
2022-09-14T09:52:32.547Z,6.93
2022-09-14T09:55:02.315Z,5.28
2022-09-14T09:57:32.105Z,6.15
2022-09-14T10:00:13.472Z,7.47
2022-09-14T10:02:42.159Z,5.22
2022-09-14T10:05:21.258Z,3.78
2022-09-14T10:07:57.692Z,7.28
2022-09-14T10:10:28.180Z,6.47
2022-09-14T10:12:57.292Z,5.57
2022-09-14T10:15:27.796Z,2.38
2022-09-14T10:18:04.731Z,6.10
2022-09-14T10:20:33.342Z,4.93
2022-09-14T10:23:16.314Z,4.25
2022-09-14T10:25:44.725Z,5.53
2022-09-14T10:28:22.494Z,3.22
2022-09-14T10:30:56.302Z,5.38
2022-09-14T10:33:24.959Z,6.45
2022-09-14T10:35:56.365Z,5.93
2022-09-14T10:38:31.165Z,6.75
2022-09-14T10:41:04.644Z,3.95
2022-09-14T10:43:38.504Z,4.45
2022-09-14T10:46:14.617Z,3.95
2022-09-14T10:48:48.327Z,6.82
2022-09-14T10:51:25.489Z,6.80
2022-09-14T10:53:57.489Z,5.72
2022-09-14T10:56:28.424Z,4.95
2022-09-14T10:59:05.833Z,5.43
2022-09-14T11:01:42.763Z,6.97
2022-09-14T11:04:19.232Z,5.47
2022-09-14T11:06:51.156Z,4.35
2022-09-14T11:09:23.427Z,5.88
2022-09-14T11:11:56.490Z,5.47
2022-09-14T11:14:36.250Z,5.85
2022-09-14T11:17:16.697Z,2.35
2022-09-14T11:19:49.384Z,3.88
2022-09-14T11:22:21.754Z,2.92
2022-09-14T11:24:53.619Z,4.85
2022-09-14T11:27:27.076Z,5.00
2022-09-14T11:29:57.934Z,3.72
2022-09-14T11:32:30.950Z,5.57
2022-09-14T11:35:01.186Z,4.15
2022-09-14T11:37:33.062Z,2.45
2022-09-14T11:40:05.295Z,4.47
2022-09-14T11:42:35.442Z,4.00
2022-09-14T11:45:07.468Z,6.47
2022-09-14T11:47:39.405Z,2.90
2022-09-14T11:50:16.036Z,3.42
2022-09-14T11:52:44.385Z,3.20
2022-09-14T11:55:17.213Z,3.90
2022-09-14T11:57:46.722Z,5.63
2022-09-14T12:00:30.535Z,4.30
2022-09-14T12:03:14.720Z,3.42
2022-09-14T12:05:44.868Z,5.13
2022-09-14T12:08:31.958Z,3.55
2022-09-14T12:11:01.106Z,4.32
2022-09-14T12:13:29.533Z,5.15
2022-09-14T12:16:05.095Z,3.30
2022-09-14T12:18:37.037Z,7.00
2022-09-14T12:21:08.140Z,3.33
2022-09-14T12:23:46.489Z,3.63
2022-09-14T12:26:26.511Z,4.47
2022-09-14T12:28:56.275Z,5.00
2022-09-14T12:31:36.302Z,4.10
2022-09-14T12:34:25.774Z,3.55
2022-09-14T12:37:14.965Z,5.03
2022-09-14T12:40:05.202Z,5.38
2022-09-14T12:42:33.818Z,3.90
2022-09-14T12:45:23.620Z,4.60
2022-09-14T12:47:52.845Z,3.22
2022-09-14T12:50:22.909Z,2.28
2022-09-14T12:52:55.319Z,4.53
2022-09-14T12:55:34.377Z,6.00
2022-09-14T12:58:05.332Z,6.18
2022-09-14T13:00:39.693Z,3.38
2022-09-14T13:03:16.763Z,4.75
2022-09-14T13:05:46.359Z,4.20
2022-09-14T13:08:14.988Z,3.75
2022-09-14T13:10:48.691Z,5.53
2022-09-14T13:13:18.250Z,4.78
2022-09-14T13:15:53.059Z,3.55
2022-09-14T13:18:32.899Z,4.75
2022-09-14T13:21:02.650Z,3.20
2022-09-14T13:23:33.612Z,3.22
2022-09-14T13:26:10.260Z,3.00
2022-09-14T13:28:38.610Z,2.67
2022-09-14T13:31:07.176Z,4.75
2022-09-14T13:33:35.599Z,5.50
2022-09-14T13:36:04.905Z,3.25
2022-09-14T13:38:34.425Z,3.97
2022-09-14T13:41:09.459Z,4.05
2022-09-14T13:43:37.973Z,2.58
2022-09-14T13:46:08.105Z,3.75
2022-09-14T13:48:37.888Z,2.72
2022-09-14T13:51:06.944Z,4.47
2022-09-14T13:53:40.452Z,2.25
2022-09-14T13:56:25.220Z,4.93
2022-09-14T13:59:13.618Z,6.93
2022-09-14T14:01:43.345Z,4.57
2022-09-14T14:04:24.894Z,3.75
2022-09-14T14:07:01.174Z,2.55
2022-09-14T14:09:42.752Z,4.50
2022-09-14T14:12:13.492Z,3.35
2022-09-14T14:14:41.897Z,3.75
2022-09-14T14:17:27.613Z,4.47
2022-09-14T14:19:57.639Z,5.38
2022-09-14T14:22:28.518Z,6.97
2022-09-14T14:25:13.198Z,2.63
2022-09-14T14:27:44.843Z,4.75
2022-09-14T14:30:16.090Z,4.53
2022-09-14T14:32:45.568Z,5.22
2022-09-14T14:35:18.269Z,3.33
2022-09-14T14:37:48.226Z,4.65
2022-09-14T14:40:17.864Z,6.05
2022-09-14T14:42:49.322Z,3.45
2022-09-14T14:45:19.736Z,3.95
2022-09-14T14:47:53.491Z,2.65
2022-09-14T14:50:24.653Z,3.78
2022-09-14T14:52:53.786Z,2.85
2022-09-14T14:55:23.990Z,4.45
2022-09-14T14:57:55.489Z,4.22
2022-09-14T15:00:25.600Z,6.57
2022-09-14T15:02:54.513Z,4.22
2022-09-14T15:05:25.993Z,4.18
2022-09-14T15:07:56.281Z,4.57
2022-09-14T15:10:27.137Z,3.20
2022-09-14T15:12:57.075Z,3.85
2022-09-14T15:15:26.981Z,5.38
2022-09-14T15:17:56.343Z,6.05
2022-09-14T15:20:25.023Z,4.70
2022-09-14T15:22:53.642Z,4.38
2022-09-14T15:25:23.002Z,3.92
2022-09-14T15:27:51.348Z,3.22
2022-09-14T15:30:21.145Z,4.88
2022-09-14T15:32:49.827Z,5.78
2022-09-14T15:35:18.587Z,4.95
2022-09-14T15:37:50.145Z,7.13
2022-09-14T15:40:20.579Z,6.32
2022-09-14T15:42:50.023Z,3.22
2022-09-14T15:45:22.635Z,6.03
2022-09-14T15:47:51.834Z,6.80
2022-09-14T15:50:20.887Z,4.68
2022-09-14T15:52:49.674Z,7.05
2022-09-14T15:55:18.740Z,3.88
2022-09-14T15:57:47.629Z,7.53
2022-09-14T16:00:16.817Z,5.18
2022-09-14T16:02:47.056Z,5.22
2022-09-14T16:05:16.290Z,3.63
2022-09-14T16:07:45.027Z,3.05
2022-09-14T16:10:15.157Z,4.75
2022-09-14T16:12:43.872Z,4.15
2022-09-14T16:15:14.861Z,5.03
2022-09-14T16:17:43.813Z,5.47
2022-09-14T16:20:13.896Z,3.72
2022-09-14T16:22:42.317Z,5.88
2022-09-14T16:25:10.640Z,6.35
2022-09-14T16:27:39.467Z,4.65
2022-09-14T16:30:08.684Z,6.03
2022-09-14T16:32:37.267Z,7.90
2022-09-14T16:35:08.131Z,7.35
2022-09-14T16:37:39.391Z,6.60
2022-09-14T16:40:13.418Z,3.53
2022-09-14T16:42:50.225Z,3.78
2022-09-14T16:45:22.661Z,4.93
2022-09-14T16:47:55.783Z,5.72
2022-09-14T16:50:33.496Z,3.92
2022-09-14T16:53:05.860Z,5.32
2022-09-14T16:55:34.239Z,4.32
2022-09-14T16:58:03.037Z,5.03
2022-09-14T17:00:32.042Z,6.13
2022-09-14T17:03:00.886Z,5.13
2022-09-14T17:05:30.587Z,7.15
2022-09-14T17:07:59.375Z,5.90
2022-09-14T17:10:29.376Z,4.35
2022-09-14T17:12:57.750Z,4.85
2022-09-14T17:15:26.119Z,5.75
2022-09-14T17:17:54.815Z,3.92
2022-09-14T17:20:23.651Z,6.35
2022-09-14T17:22:52.162Z,7.50
2022-09-14T17:25:23.710Z,3.80
2022-09-14T17:27:53.593Z,4.13
2022-09-14T17:30:22.031Z,8.25
2022-09-14T17:32:50.418Z,5.32
2022-09-14T17:35:18.914Z,5.95
2022-09-14T17:37:47.289Z,8.43
2022-09-14T17:40:15.794Z,6.82
2022-09-14T17:42:44.290Z,5.55
2022-09-14T17:45:14.677Z,8.85
2022-09-14T17:47:43.148Z,4.50
2022-09-14T17:50:11.874Z,5.33
2022-09-14T17:52:40.360Z,3.97
2022-09-14T17:55:08.897Z,4.05
2022-09-14T17:57:37.282Z,6.33
2022-09-14T18:00:06.311Z,4.43
2022-09-14T18:02:36.043Z,3.28
2022-09-14T18:05:04.554Z,3.40
2022-09-14T18:07:32.967Z,4.07
2022-09-14T18:10:01.308Z,5.87
2022-09-14T18:12:29.787Z,5.50
2022-09-14T18:14:58.519Z,4.87
2022-09-14T18:17:26.952Z,5.03
2022-09-14T18:19:58.485Z,5.07
2022-09-14T18:22:26.923Z,7.97
2022-09-14T18:24:55.282Z,3.73
2022-09-14T18:27:24.057Z,6.67
2022-09-14T18:29:52.397Z,7.23
2022-09-14T18:32:20.863Z,7.10
2022-09-14T18:34:49.228Z,5.73
2022-09-14T18:37:19.169Z,4.57
2022-09-14T18:39:47.546Z,6.03
2022-09-14T18:42:15.985Z,7.77
2022-09-14T18:44:45.293Z,5.80
2022-09-14T18:47:13.788Z,6.63
2022-09-14T18:49:42.132Z,5.33
2022-09-14T18:52:10.770Z,5.00
2022-09-14T18:54:40.571Z,5.33
2022-09-14T18:57:08.951Z,3.57
2022-09-14T18:59:37.310Z,6.57
2022-09-14T19:02:05.951Z,9.00
2022-09-14T19:04:34.343Z,6.93
2022-09-14T19:07:02.769Z,6.40
2022-09-14T19:09:31.100Z,5.57
2022-09-14T19:12:01.179Z,5.87
2022-09-14T19:14:29.735Z,7.57
2022-09-14T19:16:58.885Z,7.80
2022-09-14T19:19:27.289Z,6.43
2022-09-14T19:21:55.691Z,5.33
2022-09-14T19:24:24.034Z,5.37
2022-09-14T19:26:55.976Z,4.50
2022-09-14T19:29:32.114Z,4.20
2022-09-14T19:32:00.795Z,4.60
2022-09-14T19:34:29.736Z,6.47
2022-09-14T19:36:58.120Z,4.10
2022-09-14T19:39:27.171Z,6.33
2022-09-14T19:41:55.704Z,5.07
2022-09-14T19:44:24.755Z,6.37
2022-09-14T19:46:54.490Z,7.33
2022-09-14T19:49:23.769Z,8.17
2022-09-14T19:51:54.073Z,5.43
2022-09-14T19:54:22.825Z,5.40
2022-09-14T19:56:51.307Z,4.73
2022-09-14T19:59:19.709Z,5.93
2022-09-14T20:01:48.182Z,5.67
2022-09-14T20:04:19.355Z,5.63
2022-09-14T20:06:48.867Z,6.53
2022-09-14T20:09:18.086Z,5.40
2022-09-14T20:11:47.719Z,6.67
2022-09-14T20:14:16.919Z,9.37
2022-09-14T20:16:46.750Z,5.73
2022-09-14T20:19:16.111Z,7.67
2022-09-14T20:21:46.459Z,5.97
2022-09-14T20:24:17.466Z,5.87
2022-09-14T20:26:46.315Z,7.53
2022-09-14T20:29:15.207Z,6.27
2022-09-14T20:31:43.624Z,6.30
2022-09-14T20:34:12.341Z,7.57
2022-09-14T20:36:41.381Z,7.93
2022-09-14T20:39:11.336Z,8.67
2022-09-14T20:41:39.893Z,6.90
2022-09-14T20:44:08.289Z,8.07
2022-09-14T20:46:39.157Z,7.47
2022-09-14T20:49:10.238Z,8.27
2022-09-14T20:51:38.742Z,8.57
2022-09-14T20:54:07.506Z,7.37
2022-09-14T20:56:37.544Z,8.93
2022-09-14T20:59:07.112Z,4.93
2022-09-14T21:01:36.608Z,7.63
2022-09-14T21:04:05.993Z,8.27
2022-09-14T21:06:34.386Z,10.13
2022-09-14T21:09:02.818Z,8.03
2022-09-14T21:11:31.506Z,8.00
2022-09-14T21:14:01.363Z,7.90
2022-09-14T21:16:32.061Z,9.27
2022-09-14T21:19:01.504Z,9.57
2022-09-14T21:21:30.514Z,10.53
2022-09-14T21:23:59.699Z,7.30
2022-09-14T21:26:28.993Z,10.10
2022-09-14T21:28:58.008Z,9.63
2022-09-14T21:31:28.740Z,9.70
2022-09-14T21:33:58.889Z,8.73
2022-09-14T21:36:28.197Z,8.97
2022-09-14T21:38:57.455Z,11.70
2022-09-14T21:41:27.155Z,10.33
2022-09-14T21:43:56.518Z,12.97
2022-09-14T21:46:25.184Z,8.97
2022-09-14T21:48:55.829Z,7.97
2022-09-14T21:51:24.924Z,12.40
2022-09-14T21:53:54.499Z,9.07
2022-09-14T21:56:23.734Z,10.63
2022-09-14T21:58:52.951Z,7.50
2022-09-14T22:01:22.299Z,7.30
2022-09-14T22:03:51.439Z,7.10
2022-09-14T22:06:22.266Z,7.87
2022-09-14T22:08:51.875Z,9.03
2022-09-14T22:11:23.220Z,6.80
2022-09-14T22:13:54.886Z,5.90
2022-09-14T22:16:23.849Z,9.20
2022-09-14T22:18:52.978Z,9.67
2022-09-14T22:21:23.299Z,8.13
2022-09-14T22:23:52.162Z,9.00
2022-09-14T22:26:21.093Z,8.50
2022-09-14T22:28:49.958Z,11.03
2022-09-14T22:31:18.984Z,11.37
2022-09-14T22:33:47.436Z,12.17
2022-09-14T22:36:16.251Z,8.30
2022-09-14T22:38:46.514Z,10.53
2022-09-14T22:41:17.723Z,12.03
2022-09-14T22:43:46.522Z,13.00
2022-09-14T22:46:15.172Z,10.30
2022-09-14T22:48:43.620Z,12.43
2022-09-14T22:51:13.519Z,10.03
2022-09-14T22:53:42.020Z,13.77
2022-09-14T22:56:12.746Z,12.23
2022-09-14T22:58:41.219Z,11.17
2022-09-14T23:01:10.645Z,14.43
2022-09-14T23:03:39.094Z,10.47
2022-09-14T23:06:08.255Z,13.13
2022-09-14T23:08:37.015Z,12.67
2022-09-14T23:11:06.449Z,9.53
2022-09-14T23:13:38.088Z,14.73
2022-09-14T23:16:10.831Z,11.93
2022-09-14T23:18:39.179Z,12.63
2022-09-14T23:21:08.049Z,13.03
2022-09-14T23:23:36.439Z,11.87
2022-09-14T23:26:05.489Z,13.27
2022-09-14T23:28:34.359Z,12.63
2022-09-14T23:31:04.228Z,12.27
2022-09-14T23:33:32.965Z,12.00
2022-09-14T23:36:01.372Z,13.60
2022-09-14T23:38:29.805Z,12.90
2022-09-14T23:40:58.755Z,13.10
2022-09-14T23:43:27.126Z,13.70
2022-09-14T23:45:55.585Z,11.77
2022-09-14T23:48:25.503Z,14.60
2022-09-14T23:51:00.266Z,12.33
2022-09-14T23:53:28.884Z,11.67
2022-09-14T23:55:57.484Z,13.03
2022-09-14T23:58:26.403Z,11.07
